Time;durP1;ratioP1;P1;durP2;ratioP2;P2;SDS_P1;SDS_P2;PMS_P1;PMS_P2;Temp;Humidity;BMP_temperature;BMP_pressure;BME280_temperature;BME280_humidity;BME280_pressure;Samples;Min_cycle;Max_cycle;Signal;HPM_P1;HPM_P2
2022/03/26 00:01:09;;;;;;;22.88;17.48;;;6.50;81.50;;;;;;5050128;28;20208;-70
2022/03/26 00:03:36;;;;;;;26.50;18.00;;;6.50;81.50;;;;;;5050137;28;20205;-70
2022/03/26 00:06:03;;;;;;;32.40;19.70;;;6.40;82.00;;;;;;5049839;28;20221;-71
2022/03/26 00:08:29;;;;;;;30.25;18.80;;;6.40;82.00;;;;;;5049117;28;20197;-70
2022/03/26 00:10:56;;;;;;;30.25;18.92;;;6.40;82.30;;;;;;5050464;28;20197;-70
2022/03/26 00:13:23;;;;;;;29.25;18.90;;;6.30;82.60;;;;;;5050074;28;20216;-70
2022/03/26 00:15:49;;;;;;;30.40;19.50;;;6.30;83.30;;;;;;5049870;28;20221;-71
2022/03/26 00:18:18;;;;;;;26.95;18.33;;;6.30;83.30;;;;;;5050519;28;20229;-71
2022/03/26 00:20:45;;;;;;;27.65;18.73;;;6.20;83.40;;;;;;5050864;28;20201;-70
2022/03/26 00:23:12;;;;;;;32.30;19.48;;;6.20;83.90;;;;;;5050071;28;20232;-70
2022/03/26 00:25:39;;;;;;;29.23;19.08;;;6.20;83.30;;;;;;5050519;28;20248;-70
2022/03/26 00:28:06;;;;;;;26.42;17.65;;;6.10;83.60;;;;;;5049135;28;20201;-70
2022/03/26 00:30:33;;;;;;;28.73;19.77;;;6.10;83.60;;;;;;5049915;28;20292;-70
2022/03/26 00:33:00;;;;;;;32.83;18.70;;;6.10;84.10;;;;;;5050057;28;20205;-71
2022/03/26 00:35:28;;;;;;;25.63;16.90;;;6.00;83.80;;;;;;5049800;28;20256;-71
2022/03/26 00:37:55;;;;;;;30.55;18.50;;;6.00;84.20;;;;;;5048913;28;20221;-70
2022/03/26 00:40:22;;;;;;;32.63;18.50;;;5.90;84.40;;;;;;5049160;28;20217;-70
2022/03/26 00:42:49;;;;;;;31.15;19.60;;;5.90;84.20;;;;;;5050036;28;20209;-70
2022/03/26 00:45:15;;;;;;;33.42;19.48;;;5.90;84.30;;;;;;5049203;28;20323;-70
2022/03/26 00:47:42;;;;;;;27.08;18.42;;;6.00;84.50;;;;;;5049405;28;20569;-70
2022/03/26 00:50:10;;;;;;;30.52;19.55;;;5.90;84.40;;;;;;5049904;28;20201;-70
2022/03/26 00:52:38;;;;;;;29.58;18.25;;;5.90;84.30;;;;;;5049096;28;20228;-71
2022/03/26 00:55:06;;;;;;;29.00;20.23;;;5.80;84.70;;;;;;5083280;22;20289;-94
2022/03/26 00:57:33;;;;;;;28.33;20.77;;;5.80;84.90;;;;;;5087110;28;20260;-93
2022/03/26 01:00:00;;;;;;;30.60;18.40;;;5.70;84.70;;;;;;5091950;28;20232;-94
2022/03/26 01:02:27;;;;;;;28.27;19.90;;;5.70;85.20;;;;;;5090726;28;20219;-94
2022/03/26 01:04:54;;;;;;;28.20;18.60;;;5.60;85.20;;;;;;5094940;28;20200;-94
2022/03/26 01:07:20;;;;;;;29.52;19.90;;;5.60;85.60;;;;;;5094747;28;20201;-94
2022/03/26 01:09:48;;;;;;;28.70;18.75;;;5.60;86.00;;;;;;5095064;28;20200;-93
2022/03/26 01:12:15;;;;;;;32.35;19.45;;;5.50;86.20;;;;;;5095240;28;20197;-94
2022/03/26 01:14:42;;;;;;;30.30;20.20;;;5.50;86.60;;;;;;5095485;28;20227;-93
2022/03/26 01:17:09;;;;;;;26.95;18.80;;;5.50;86.70;;;;;;5095129;28;20204;-93
2022/03/26 01:19:36;;;;;;;30.90;19.95;;;5.40;87.00;;;;;;5098942;28;20221;-94
2022/03/26 01:22:03;;;;;;;30.15;20.08;;;5.40;87.30;;;;;;5100059;28;20223;-94
2022/03/26 01:24:30;;;;;;;27.02;18.95;;;5.30;87.20;;;;;;5100935;28;20276;-94
2022/03/26 01:26:58;;;;;;;33.30;18.40;;;5.40;87.30;;;;;;5099659;28;20239;-94
2022/03/26 01:29:25;;;;;;;27.60;19.63;;;5.40;87.20;;;;;;5098919;28;20247;-95
2022/03/26 01:32:02;;;;;;;26.30;19.98;;;5.30;87.40;;;;;;5098549;28;20208;-93
2022/03/26 01:34:28;;;;;;;29.10;19.63;;;5.30;87.80;;;;;;5097182;28;20224;-94
2022/03/26 01:36:55;;;;;;;33.53;20.67;;;5.30;87.90;;;;;;5097816;28;20264;-93
2022/03/26 01:39:23;;;;;;;27.42;19.15;;;5.20;87.80;;;;;;5098716;28;20231;-95
2022/03/26 01:41:50;;;;;;;35.60;20.50;;;5.20;87.90;;;;;;5098108;28;20260;-94
2022/03/26 01:44:18;;;;;;;28.50;19.25;;;5.10;88.10;;;;;;5097692;28;20303;-94
2022/03/26 01:46:47;;;;;;;28.35;19.33;;;5.10;88.40;;;;;;5097921;28;20216;-93
2022/03/26 01:49:14;;;;;;;29.08;20.48;;;5.10;88.60;;;;;;5096798;28;20203;-94
2022/03/26 01:51:41;;;;;;;29.85;18.33;;;5.00;88.60;;;;;;5096767;28;20821;-93
2022/03/26 01:54:09;;;;;;;30.88;20.55;;;5.00;88.80;;;;;;5090848;28;20197;-94
2022/03/26 01:56:35;;;;;;;29.48;19.38;;;5.00;89.00;;;;;;5090780;28;20220;-94
2022/03/26 01:59:05;;;;;;;29.08;19.15;;;4.90;89.10;;;;;;5095622;28;20212;-94
2022/03/26 02:01:34;;;;;;;35.72;20.40;;;4.90;89.20;;;;;;5096653;28;20204;-94
2022/03/26 02:04:01;;;;;;;35.67;21.45;;;4.90;89.30;;;;;;5095804;28;20230;-94
2022/03/26 02:06:31;;;;;;;31.75;19.77;;;4.80;89.20;;;;;;5096432;28;20208;-93
2022/03/26 02:08:58;;;;;;;27.38;19.05;;;4.80;89.20;;;;;;5096027;28;20201;-93
2022/03/26 02:11:25;;;;;;;30.38;19.67;;;4.80;89.00;;;;;;5097030;28;20196;-94
2022/03/26 02:13:53;;;;;;;27.42;18.85;;;4.80;89.10;;;;;;5097160;28;20204;-93
2022/03/26 02:16:21;;;;;;;29.40;19.60;;;4.70;88.80;;;;;;5096958;28;20231;-94
2022/03/26 02:18:50;;;;;;;29.45;18.55;;;4.70;89.10;;;;;;5094882;28;20226;-95
2022/03/26 02:21:20;;;;;;;31.38;19.63;;;4.70;89.10;;;;;;5094941;28;20230;-94
2022/03/26 02:23:47;;;;;;;28.05;19.63;;;4.60;89.10;;;;;;5095047;28;20200;-94
2022/03/26 02:26:16;;;;;;;31.45;19.25;;;4.60;89.40;;;;;;5094571;28;20224;-93
2022/03/26 02:28:44;;;;;;;25.85;18.77;;;4.60;89.70;;;;;;5094913;28;20184;-94
2022/03/26 02:31:11;;;;;;;31.95;20.10;;;4.60;89.60;;;;;;5094161;28;20204;-94
2022/03/26 02:33:37;;;;;;;27.02;17.42;;;4.60;89.60;;;;;;5095027;28;20272;-94
2022/03/26 02:36:05;;;;;;;31.08;20.55;;;4.60;89.40;;;;;;5095121;28;20252;-93
2022/03/26 02:38:33;;;;;;;31.15;18.38;;;4.60;89.60;;;;;;5095949;28;20208;-93
2022/03/26 02:41:00;;;;;;;28.30;18.30;;;4.50;89.40;;;;;;5099247;28;20267;-93
2022/03/26 02:43:27;;;;;;;29.55;18.70;;;4.50;89.20;;;;;;5099037;28;20275;-93
2022/03/26 02:45:54;;;;;;;32.30;19.70;;;4.50;89.50;;;;;;5096961;28;20227;-94
2022/03/26 02:48:21;;;;;;;34.17;18.65;;;4.50;89.60;;;;;;5096461;28;20247;-94
2022/03/26 02:50:49;;;;;;;30.27;18.60;;;4.40;89.90;;;;;;5097770;28;20193;-94
2022/03/26 02:53:16;;;;;;;29.77;18.80;;;4.40;89.80;;;;;;5097296;28;20268;-94
2022/03/26 02:55:44;;;;;;;33.00;18.58;;;4.40;90.30;;;;;;5092969;28;20232;-94
2022/03/26 02:58:11;;;;;;;29.73;18.88;;;4.40;89.70;;;;;;5096896;28;20181;-93
2022/03/26 03:00:49;;;;;;;28.90;18.75;;;4.40;90.00;;;;;;5098798;28;20195;-93
2022/03/26 03:03:38;;;;;;;29.38;17.42;;;4.40;90.10;;;;;;5096040;28;20649;-94
2022/03/26 03:06:05;;;;;;;30.70;18.13;;;4.30;90.20;;;;;;5095097;28;20228;-95
2022/03/26 03:08:32;;;;;;;31.58;19.70;;;4.20;90.20;;;;;;5094772;28;20271;-94
2022/03/26 03:11:00;;;;;;;27.98;19.00;;;4.10;90.40;;;;;;5096577;28;20184;-94
2022/03/26 03:13:27;;;;;;;26.25;17.65;;;4.10;90.50;;;;;;5096307;28;20204;-94
2022/03/26 03:15:54;;;;;;;36.20;20.17;;;4.10;90.60;;;;;;5097261;28;20200;-93
2022/03/26 03:18:21;;;;;;;31.30;18.67;;;4.10;90.50;;;;;;5097575;28;20197;-94
2022/03/26 03:20:48;;;;;;;26.70;17.15;;;4.10;90.50;;;;;;5098323;28;20271;-94
2022/03/26 03:23:14;;;;;;;28.23;18.58;;;4.10;90.50;;;;;;5097334;28;20231;-94
2022/03/26 03:25:41;;;;;;;31.45;19.35;;;4.10;90.50;;;;;;5095139;28;20303;-93
2022/03/26 03:28:09;;;;;;;27.33;18.55;;;4.10;90.50;;;;;;5094463;28;20260;-94
2022/03/26 03:30:37;;;;;;;26.27;18.55;;;4.10;90.50;;;;;;5093934;28;20208;-94
2022/03/26 03:33:04;;;;;;;28.13;18.00;;;4.10;90.50;;;;;;5091283;28;20204;-94
2022/03/26 03:35:31;;;;;;;29.15;18.42;;;4.10;90.70;;;;;;5089924;28;20288;-93
2022/03/26 03:37:58;;;;;;;27.58;19.00;;;4.00;91.00;;;;;;5090181;28;20215;-94
2022/03/26 03:40:25;;;;;;;28.50;17.98;;;4.00;90.60;;;;;;5090292;28;20293;-94
2022/03/26 03:42:53;;;;;;;28.20;18.13;;;4.00;90.70;;;;;;5089928;28;20211;-93
2022/03/26 03:45:21;;;;;;;28.70;19.52;;;3.90;90.80;;;;;;5092210;28;20248;-93
2022/03/26 03:47:48;;;;;;;29.15;18.15;;;3.90;90.90;;;;;;5090762;28;20300;-94
2022/03/26 03:50:16;;;;;;;32.58;18.88;;;3.90;91.20;;;;;;5089637;28;20201;-95
2022/03/26 03:52:43;;;;;;;33.83;19.15;;;3.80;90.90;;;;;;5087891;28;20197;-94
2022/03/26 03:55:10;;;;;;;26.60;18.27;;;3.80;91.00;;;;;;5085644;28;20228;-94
2022/03/26 03:57:41;;;;;;;30.73;19.80;;;3.80;91.00;;;;;;5086480;28;20185;-94
2022/03/26 04:00:09;;;;;;;30.42;17.92;;;3.70;91.10;;;;;;5085598;28;20234;-94
2022/03/26 04:02:37;;;;;;;27.27;18.58;;;3.70;91.20;;;;;;5086849;28;20210;-95
2022/03/26 04:05:04;;;;;;;29.80;18.60;;;3.70;91.30;;;;;;5088103;28;20217;-94
2022/03/26 04:07:31;;;;;;;26.58;18.63;;;3.60;91.40;;;;;;5087588;28;20205;-94
2022/03/26 04:09:58;;;;;;;28.15;19.08;;;3.60;91.30;;;;;;5087838;28;20207;-93
2022/03/26 04:12:28;;;;;;;27.83;18.17;;;3.60;91.40;;;;;;5088846;28;20200;-95
2022/03/26 04:14:54;;;;;;;28.45;18.77;;;3.60;91.70;;;;;;5089048;28;20228;-94
2022/03/26 04:20:09;;;;;;;29.00;18.58;;;3.50;91.80;;;;;;5084906;28;20238;-94
2022/03/26 04:22:36;;;;;;;26.17;17.10;;;3.50;92.00;;;;;;5091240;28;20204;-93
2022/03/26 04:25:04;;;;;;;29.65;18.73;;;3.50;92.00;;;;;;5091410;28;20220;-94
2022/03/26 04:27:31;;;;;;;28.80;17.50;;;3.50;92.10;;;;;;5091811;28;20212;-94
2022/03/26 04:29:58;;;;;;;28.40;17.30;;;3.40;92.20;;;;;;5093911;28;20215;-94
2022/03/26 04:32:25;;;;;;;28.30;18.30;;;3.40;92.20;;;;;;5094012;28;20196;-92
2022/03/26 04:34:51;;;;;;;32.45;18.40;;;3.30;92.20;;;;;;5094449;28;20288;-94
2022/03/26 04:37:20;;;;;;;25.70;16.73;;;3.30;92.40;;;;;;5095291;28;20240;-94
2022/03/26 04:39:47;;;;;;;29.77;19.42;;;3.30;92.40;;;;;;5096439;28;20216;-93
2022/03/26 04:42:16;;;;;;;30.27;18.50;;;3.20;92.50;;;;;;5097051;28;20184;-93
2022/03/26 04:44:42;;;;;;;30.35;18.05;;;3.20;92.70;;;;;;5095287;28;20212;-94
2022/03/26 04:47:09;;;;;;;31.95;19.15;;;3.10;92.80;;;;;;5095122;28;20211;-94
2022/03/26 04:49:36;;;;;;;28.15;17.75;;;3.10;92.80;;;;;;5095375;28;20204;-93
2022/03/26 04:52:03;;;;;;;32.40;18.45;;;3.10;93.10;;;;;;5096043;28;20208;-94
2022/03/26 04:54:32;;;;;;;27.17;18.52;;;3.00;93.10;;;;;;5094388;28;20220;-93
2022/03/26 04:56:58;;;;;;;29.95;17.95;;;3.00;93.10;;;;;;5095606;28;20180;-93
2022/03/26 04:59:25;;;;;;;30.10;18.48;;;3.00;93.00;;;;;;5096581;28;20272;-94
2022/03/26 05:01:52;;;;;;;31.52;17.63;;;3.00;93.00;;;;;;5096854;28;20180;-94
2022/03/26 05:04:19;;;;;;;32.17;19.33;;;3.00;93.00;;;;;;5096642;28;20264;-94
2022/03/26 05:06:46;;;;;;;33.17;19.65;;;3.00;93.10;;;;;;5096657;28;20222;-93
2022/03/26 05:09:12;;;;;;;28.75;18.58;;;3.00;92.90;;;;;;5097296;28;20244;-93
2022/03/26 05:11:42;;;;;;;28.63;17.50;;;2.90;93.10;;;;;;5097057;28;20207;-93
2022/03/26 05:14:09;;;;;;;30.88;18.90;;;2.90;93.30;;;;;;5096928;28;20184;-93
2022/03/26 05:16:36;;;;;;;28.98;18.58;;;2.90;93.50;;;;;;5096451;28;20212;-94
2022/03/26 05:19:03;;;;;;;27.80;18.20;;;3.00;93.50;;;;;;5096829;28;20208;-94
2022/03/26 05:21:30;;;;;;;29.05;20.55;;;3.00;93.60;;;;;;5096846;28;20202;-93
2022/03/26 05:23:56;;;;;;;26.77;17.80;;;3.00;93.50;;;;;;5096049;28;20228;-93
2022/03/26 05:26:23;;;;;;;27.00;17.10;;;3.00;93.60;;;;;;5095714;28;20200;-93
2022/03/26 05:28:52;;;;;;;29.33;18.30;;;2.90;93.60;;;;;;5095858;28;20184;-93
2022/03/26 05:31:19;;;;;;;26.95;16.83;;;2.90;93.70;;;;;;5095112;28;20200;-94
2022/03/26 05:36:13;;;;;;;28.42;19.20;;;2.90;93.80;;;;;;5052382;28;20233;-68
2022/03/26 05:38:40;;;;;;;31.63;18.58;;;2.90;93.70;;;;;;5049135;28;20205;-67
2022/03/26 05:41:07;;;;;;;27.23;16.70;;;3.00;93.80;;;;;;5049972;28;20225;-68
2022/03/26 05:43:33;;;;;;;26.40;17.77;;;3.00;93.70;;;;;;5049872;28;20635;-68
2022/03/26 05:46:01;;;;;;;30.38;17.42;;;3.10;93.80;;;;;;5049992;28;20624;-68
2022/03/26 05:48:28;;;;;;;31.75;19.02;;;3.10;93.60;;;;;;5049438;28;20717;-68
2022/03/26 05:50:55;;;;;;;23.95;16.70;;;3.20;93.50;;;;;;5049885;28;20197;-68
2022/03/26 05:53:21;;;;;;;28.40;18.00;;;3.20;93.60;;;;;;5049878;28;20205;-68
2022/03/26 05:55:48;;;;;;;25.27;17.48;;;3.20;93.70;;;;;;5049698;28;20229;-68
2022/03/26 05:58:15;;;;;;;26.95;17.40;;;3.30;93.80;;;;;;5049450;28;20212;-68
2022/03/26 06:00:42;;;;;;;31.98;18.95;;;3.30;93.60;;;;;;5049643;28;20278;-68
2022/03/26 06:03:10;;;;;;;30.05;18.58;;;3.40;93.70;;;;;;5049989;28;20259;-68
2022/03/26 06:05:37;;;;;;;29.27;18.52;;;3.40;93.60;;;;;;5051539;28;20224;-66
2022/03/26 06:08:04;;;;;;;26.15;17.23;;;3.50;93.70;;;;;;5052854;28;20684;-68
2022/03/26 06:10:31;;;;;;;29.17;17.15;;;3.50;93.90;;;;;;5053361;28;20626;-68
2022/03/26 06:12:57;;;;;;;31.80;18.10;;;3.60;93.80;;;;;;5053169;28;20201;-66
2022/03/26 06:15:24;;;;;;;28.38;17.80;;;3.60;93.70;;;;;;5053362;28;20229;-66
2022/03/26 06:17:51;;;;;;;23.75;17.50;;;3.80;93.60;;;;;;5052575;28;20240;-66
2022/03/26 06:20:19;;;;;;;33.50;20.50;;;3.90;93.50;;;;;;5053232;28;20221;-66
2022/03/26 06:22:46;;;;;;;28.77;16.98;;;4.00;93.60;;;;;;5053050;28;20204;-66
2022/03/26 06:25:13;;;;;;;27.27;17.90;;;4.10;93.50;;;;;;5052848;28;20311;-66
2022/03/26 06:27:39;;;;;;;28.95;17.40;;;4.20;93.40;;;;;;5052487;28;20209;-66
2022/03/26 06:30:07;;;;;;;24.77;16.77;;;4.30;93.40;;;;;;5052933;28;20209;-66
2022/03/26 06:32:35;;;;;;;24.15;16.50;;;4.50;93.30;;;;;;5052976;28;20208;-66
2022/03/26 06:35:01;;;;;;;25.67;17.65;;;4.60;93.10;;;;;;5052667;28;20233;-66
2022/03/26 06:37:30;;;;;;;27.05;17.40;;;4.80;93.00;;;;;;5052235;28;20672;-67
2022/03/26 06:39:57;;;;;;;31.40;19.40;;;4.90;92.90;;;;;;5052805;28;20232;-66
2022/03/26 06:42:24;;;;;;;31.60;18.40;;;5.10;92.60;;;;;;5052760;28;20632;-66
2022/03/26 06:44:50;;;;;;;25.75;17.85;;;5.30;92.50;;;;;;5052727;28;20225;-66
2022/03/26 06:47:17;;;;;;;27.83;19.00;;;5.40;92.40;;;;;;5052207;28;20204;-67
2022/03/26 06:49:44;;;;;;;35.70;18.15;;;5.60;92.10;;;;;;5052840;28;20201;-67
2022/03/26 06:52:11;;;;;;;26.40;17.33;;;5.80;91.90;;;;;;5052663;28;20552;-67
2022/03/26 06:54:39;;;;;;;31.60;18.10;;;6.00;91.40;;;;;;5052411;28;20197;-67
2022/03/26 06:57:06;;;;;;;29.42;20.90;;;6.10;90.90;;;;;;5117562;22;20448;-69
2022/03/26 06:59:33;;;;;;;30.10;19.55;;;6.40;90.70;;;;;;5081688;28;20216;-70
2022/03/26 07:02:00;;;;;;;28.02;18.27;;;6.50;90.20;;;;;;5072055;28;20227;-70
2022/03/26 07:04:26;;;;;;;23.27;16.92;;;6.70;90.40;;;;;;5072053;28;20207;-69
2022/03/26 07:06:53;;;;;;;31.75;18.80;;;6.90;90.50;;;;;;5071504;28;20204;-69
2022/03/26 07:09:20;;;;;;;25.58;17.02;;;7.10;89.90;;;;;;5072246;28;20204;-69
2022/03/26 07:11:48;;;;;;;29.02;17.77;;;7.30;89.90;;;;;;5072081;28;20200;-69
2022/03/26 07:14:15;;;;;;;28.88;17.50;;;7.50;88.90;;;;;;5072134;28;20207;-69
2022/03/26 07:16:41;;;;;;;27.48;17.63;;;7.60;87.20;;;;;;5071355;28;20239;-69
2022/03/26 07:19:08;;;;;;;28.92;18.48;;;7.80;87.20;;;;;;5072002;28;20200;-70
2022/03/26 07:21:36;;;;;;;29.60;19.25;;;8.00;86.80;;;;;;5071934;28;20872;-70
2022/03/26 07:24:03;;;;;;;29.33;17.48;;;8.20;85.70;;;;;;5072074;28;20307;-70
2022/03/26 07:26:30;;;;;;;28.27;18.02;;;8.50;85.70;;;;;;5071674;28;20277;-70
2022/03/26 07:28:58;;;;;;;28.83;16.73;;;8.90;84.30;;;;;;5071147;28;20207;-69
2022/03/26 07:31:25;;;;;;;32.13;18.00;;;9.40;83.60;;;;;;5071933;28;20609;-70
2022/03/26 07:33:52;;;;;;;25.40;16.95;;;9.90;83.30;;;;;;5071748;28;20265;-69
2022/03/26 07:36:19;;;;;;;22.98;17.65;;;10.30;80.10;;;;;;5071604;28;20216;-70
2022/03/26 07:38:46;;;;;;;27.35;17.25;;;10.80;79.30;;;;;;5071002;28;20200;-70
2022/03/26 07:41:13;;;;;;;29.05;19.92;;;11.20;77.50;;;;;;5071487;28;20298;-71
2022/03/26 07:43:40;;;;;;;25.30;18.80;;;11.60;77.20;;;;;;5071293;28;20231;-70
2022/03/26 07:46:08;;;;;;;27.10;18.00;;;12.10;77.60;;;;;;5071373;28;20220;-69
2022/03/26 07:48:35;;;;;;;30.23;19.43;;;12.80;76.30;;;;;;5071066;28;20463;-69
2022/03/26 07:51:02;;;;;;;25.83;18.63;;;13.40;73.80;;;;;;5071341;28;20481;-69
2022/03/26 07:53:29;;;;;;;27.47;18.83;;;13.80;72.80;;;;;;5071346;28;20462;-70
2022/03/26 07:55:56;;;;;;;26.30;18.70;;;14.20;72.50;;;;;;5070999;28;20532;-70
2022/03/26 07:58:23;;;;;;;26.90;19.33;;;14.70;70.70;;;;;;5071204;28;20454;-69
2022/03/26 08:00:50;;;;;;;24.63;19.07;;;14.90;70.90;;;;;;5071205;28;20487;-69
2022/03/26 08:03:18;;;;;;;25.67;19.97;;;15.40;69.50;;;;;;5071277;28;20455;-69
2022/03/26 08:05:44;;;;;;;29.37;19.80;;;15.80;68.10;;;;;;5070848;28;20478;-70
2022/03/26 08:08:11;;;;;;;31.70;20.13;;;16.20;67.40;;;;;;5072732;28;20557;-70
2022/03/26 08:10:38;;;;;;;24.77;19.10;;;16.50;66.20;;;;;;5071082;28;20458;-71
2022/03/26 08:13:05;;;;;;;25.60;19.93;;;16.70;66.00;;;;;;5071029;28;20821;-70
2022/03/26 08:15:32;;;;;;;28.23;20.57;;;17.30;65.10;;;;;;5070999;28;20501;-70
2022/03/26 08:18:02;;;;;;;27.33;22.00;;;17.80;63.70;;;;;;5070240;28;20466;-70
2022/03/26 08:20:31;;;;;;;32.40;21.90;;;18.10;62.70;;;;;;5071111;28;20490;-70
2022/03/26 08:22:58;;;;;;;27.87;19.57;;;18.40;62.90;;;;;;5070683;28;20469;-69
2022/03/26 08:28:10;;;;;;;27.33;21.20;;;19.10;61.10;;;;;;5047842;28;20513;-69
2022/03/26 08:30:38;;;;;;;27.50;21.80;;;19.60;59.80;;;;;;5049146;28;21065;-70
2022/03/26 08:33:05;;;;;;;31.00;22.37;;;19.80;60.30;;;;;;5048274;28;20463;-69
2022/03/26 08:35:34;;;;;;;32.33;21.70;;;20.30;59.70;;;;;;5046287;28;20479;-70
2022/03/26 08:38:01;;;;;;;25.37;20.80;;;20.30;58.60;;;;;;5047960;28;21077;-70
2022/03/26 08:40:28;;;;;;;30.50;22.07;;;20.80;59.20;;;;;;5048392;28;20483;-69
2022/03/26 08:42:56;;;;;;;26.43;22.07;;;21.10;58.60;;;;;;5047976;28;20468;-69
2022/03/26 08:45:23;;;;;;;27.83;21.60;;;21.10;57.40;;;;;;5048372;28;20825;-70
2022/03/26 08:47:49;;;;;;;28.37;21.73;;;21.10;57.40;;;;;;5048044;28;20463;-69
2022/03/26 08:50:16;;;;;;;27.30;22.70;;;21.30;57.50;;;;;;5048271;28;20459;-70
2022/03/26 08:52:47;;;;;;;26.50;20.70;;;21.70;56.40;;;;;;5048349;28;20846;-69
2022/03/26 08:55:13;;;;;;;28.63;22.60;;;21.70;56.90;;;;;;5047784;28;20624;-70
2022/03/26 08:57:40;;;;;;;26.30;21.73;;;22.10;56.40;;;;;;5047989;28;20482;-69
2022/03/26 09:00:09;;;;;;;24.97;21.13;;;22.90;55.60;;;;;;5048095;28;21027;-70
2022/03/26 09:02:36;;;;;;;26.10;22.90;;;23.00;54.90;;;;;;5048069;28;20456;-70
2022/03/26 09:05:04;;;;;;;27.40;22.13;;;23.20;54.60;;;;;;5047416;28;20489;-70
2022/03/26 09:07:30;;;;;;;27.17;21.57;;;23.80;54.50;;;;;;5047725;28;20464;-70
2022/03/26 09:09:59;;;;;;;25.70;22.63;;;24.30;53.50;;;;;;5044680;28;20467;-69
2022/03/26 09:12:26;;;;;;;27.07;21.30;;;24.50;53.10;;;;;;5044700;28;20458;-69
2022/03/26 09:14:53;;;;;;;28.40;22.97;;;24.40;52.70;;;;;;5046662;28;20475;-70
2022/03/26 09:17:20;;;;;;;28.23;22.90;;;24.00;53.90;;;;;;5047159;28;20447;-69
2022/03/26 09:19:47;;;;;;;25.67;21.97;;;24.10;53.50;;;;;;5046531;28;20447;-69
2022/03/26 09:22:13;;;;;;;30.80;23.30;;;24.10;52.70;;;;;;5046737;28;20483;-70
2022/03/26 09:24:40;;;;;;;29.33;23.87;;;24.80;53.00;;;;;;5047222;28;20944;-69
2022/03/26 09:27:08;;;;;;;27.63;23.47;;;24.70;53.20;;;;;;5046773;28;20456;-69
2022/03/26 09:29:38;;;;;;;27.90;23.13;;;25.00;51.80;;;;;;5046691;28;20479;-70
2022/03/26 09:32:05;;;;;;;28.00;22.40;;;24.90;52.00;;;;;;5048126;28;20455;-70
2022/03/26 09:34:32;;;;;;;29.00;22.63;;;25.60;51.60;;;;;;5047004;28;21001;-68
2022/03/26 09:36:59;;;;;;;28.23;23.27;;;26.00;51.60;;;;;;5047095;28;20554;-68
2022/03/26 09:39:25;;;;;;;27.97;22.93;;;26.70;50.20;;;;;;5047657;28;20463;-68
2022/03/26 09:41:54;;;;;;;32.07;23.30;;;26.50;50.40;;;;;;5051286;28;20479;-69
2022/03/26 09:44:23;;;;;;;31.13;23.63;;;26.80;49.70;;;;;;5051077;28;20800;-69
2022/03/26 09:46:51;;;;;;;27.23;24.03;;;26.80;50.30;;;;;;5049838;28;20483;-69
2022/03/26 09:49:17;;;;;;;27.80;24.47;;;26.70;50.30;;;;;;5050920;28;20459;-69
2022/03/26 09:51:44;;;;;;;27.30;23.10;;;26.80;49.70;;;;;;5051334;28;20458;-69
2022/03/26 09:54:15;;;;;;;27.00;22.40;;;27.10;49.60;;;;;;5050697;28;20455;-70
2022/03/26 09:56:42;;;;;;;28.17;24.40;;;27.30;49.60;;;;;;5050141;28;20976;-69
2022/03/26 09:59:09;;;;;;;26.40;21.57;;;26.90;49.50;;;;;;5050308;28;20955;-68
2022/03/26 10:01:37;;;;;;;27.80;23.57;;;27.10;50.00;;;;;;5050405;28;20487;-69
2022/03/26 10:04:12;;;;;;;36.30;24.97;;;27.20;49.40;;;;;;5050279;28;20470;-69
2022/03/26 10:06:48;;;;;;;27.90;22.97;;;27.30;49.00;;;;;;5050735;28;20482;-69
2022/03/26 10:09:26;;;;;;;27.50;22.70;;;27.60;49.50;;;;;;5050492;28;20819;-68
2022/03/26 10:12:00;;;;;;;25.90;22.60;;;27.80;49.40;;;;;;5050106;28;20491;-69
2022/03/26 10:14:37;;;;;;;28.30;24.47;;;28.00;49.70;;;;;;5049726;28;20517;-70
2022/03/26 10:17:11;;;;;;;27.57;24.57;;;27.60;49.80;;;;;;5050073;28;20463;-69
2022/03/26 10:19:41;;;;;;;30.17;23.30;;;28.30;48.60;;;;;;5050511;28;20453;-68
2022/03/26 10:22:13;;;;;;;27.60;23.53;;;28.00;48.30;;;;;;5049776;28;20492;-69
2022/03/26 10:24:43;;;;;;;28.17;23.73;;;27.90;47.90;;;;;;5050077;28;20801;-68
2022/03/26 10:27:13;;;;;;;25.50;22.07;;;28.30;47.50;;;;;;5050016;28;20933;-69
2022/03/26 10:29:49;;;;;;;31.50;24.83;;;28.20;47.50;;;;;;5050295;28;20470;-67
2022/03/26 10:35:27;;;;;;;27.87;22.97;;;29.10;47.60;;;;;;5047727;28;20596;-67
2022/03/26 10:37:58;;;;;;;26.43;23.53;;;29.70;46.10;;;;;;5048429;28;20549;-68
2022/03/26 10:40:28;;;;;;;28.90;23.50;;;29.90;46.70;;;;;;5050294;28;21169;-68
2022/03/26 10:42:58;;;;;;;27.13;23.50;;;29.80;45.60;;;;;;5048841;28;20464;-70
2022/03/26 10:45:25;;;;;;;29.20;24.60;;;29.40;45.70;;;;;;5048850;28;20481;-71
2022/03/26 10:47:56;;;;;;;27.93;23.83;;;29.10;45.30;;;;;;5048505;28;20981;-68
2022/03/26 10:50:22;;;;;;;28.10;24.50;;;28.90;46.80;;;;;;5048767;28;20457;-68
2022/03/26 10:52:49;;;;;;;27.00;23.10;;;29.40;45.90;;;;;;5049204;28;20459;-68
2022/03/26 10:55:17;;;;;;;28.07;24.97;;;29.20;45.40;;;;;;5048803;28;20485;-69
2022/03/26 10:57:46;;;;;;;29.40;24.90;;;29.20;45.30;;;;;;5048367;28;20468;-68
2022/03/26 11:00:14;;;;;;;30.47;25.17;;;29.40;45.40;;;;;;5049189;28;20888;-68
2022/03/26 11:02:42;;;;;;;30.87;25.70;;;29.20;45.00;;;;;;5049304;28;20481;-68
2022/03/26 11:05:11;;;;;;;30.27;24.23;;;29.00;46.40;;;;;;5048574;28;20481;-68
2022/03/26 11:07:40;;;;;;;28.70;24.70;;;29.40;46.00;;;;;;5048667;28;20462;-68
2022/03/26 11:10:09;;;;;;;24.93;22.07;;;29.90;47.00;;;;;;5049265;28;20464;-69
2022/03/26 11:12:37;;;;;;;25.63;22.80;;;30.60;45.80;;;;;;5048536;28;20850;-69
2022/03/26 11:15:08;;;;;;;26.43;22.50;;;30.70;44.90;;;;;;5048133;28;20482;-69
2022/03/26 11:17:48;;;;;;;25.03;22.17;;;30.70;46.50;;;;;;5048925;28;20455;-69
2022/03/26 11:20:39;;;;;;;28.00;23.00;;;30.80;44.60;;;;;;5048678;28;20470;-69
2022/03/26 11:23:26;;;;;;;25.67;23.03;;;31.20;44.40;;;;;;5048811;28;20473;-69
2022/03/26 11:26:13;;;;;;;25.77;22.70;;;31.30;44.00;;;;;;5047196;28;20484;-68
2022/03/26 11:28:49;;;;;;;30.97;23.13;;;31.10;43.90;;;;;;5047175;28;20544;-70
2022/03/26 11:31:23;;;;;;;23.73;21.33;;;31.20;42.30;;;;;;5048648;28;20459;-69
2022/03/26 11:33:50;;;;;;;25.73;22.20;;;30.90;43.00;;;;;;5048121;28;20472;-70
2022/03/26 11:36:19;;;;;;;24.70;22.00;;;30.50;42.70;;;;;;5049572;28;20522;-69
2022/03/26 11:38:55;;;;;;;26.13;20.33;;;30.40;43.30;;;;;;5048693;28;20563;-69
2022/03/26 11:41:32;;;;;;;24.37;21.80;;;30.20;44.10;;;;;;5047711;28;20515;-70
2022/03/26 11:44:01;;;;;;;24.83;21.00;;;29.90;42.20;;;;;;5047120;28;20498;-67
2022/03/26 11:52:24;;;;;;;22.87;20.30;;;30.80;42.80;;;;;;5048759;28;20499;-69
2022/03/26 11:55:02;;;;;;;24.30;20.13;;;30.50;40.70;;;;;;5046493;28;20505;-69
2022/03/26 11:57:29;;;;;;;23.70;21.10;;;30.00;41.20;;;;;;5047432;28;20498;-71
2022/03/26 11:59:59;;;;;;;23.20;20.77;;;29.70;42.40;;;;;;5048538;28;20470;-71
2022/03/26 12:02:28;;;;;;;26.13;20.70;;;29.70;42.40;;;;;;5046934;28;20486;-70
2022/03/26 12:04:57;;;;;;;27.93;22.33;;;30.20;42.80;;;;;;5047407;28;20488;-68
2022/03/26 12:07:28;;;;;;;25.00;20.87;;;30.40;42.60;;;;;;5045988;28;20470;-69
2022/03/26 12:10:13;;;;;;;25.53;19.70;;;30.40;42.50;;;;;;5048244;28;20458;-69
2022/03/26 12:12:50;;;;;;;23.37;20.50;;;30.40;42.90;;;;;;5047078;28;20456;-70
2022/03/26 12:15:32;;;;;;;22.60;19.07;;;30.00;41.70;;;;;;5047356;28;20471;-70
2022/03/26 12:18:10;;;;;;;23.00;19.40;;;30.30;40.60;;;;;;5046599;28;20810;-70
2022/03/26 12:20:39;;;;;;;23.30;19.87;;;30.20;40.80;;;;;;5046917;28;20474;-70
2022/03/26 12:23:10;;;;;;;21.87;19.13;;;30.10;41.20;;;;;;5047241;28;20483;-69
2022/03/26 12:25:46;;;;;;;21.43;19.20;;;30.20;42.80;;;;;;5044402;28;20560;-70
2022/03/26 12:28:14;;;;;;;20.73;18.57;;;30.30;42.20;;;;;;5046918;28;20526;-70
2022/03/26 12:30:46;;;;;;;21.90;19.60;;;30.30;42.10;;;;;;5047661;28;20460;-70
2022/03/26 12:33:13;;;;;;;23.37;20.37;;;30.30;41.10;;;;;;5046972;28;20960;-69
2022/03/26 12:35:42;;;;;;;22.30;19.07;;;30.60;41.20;;;;;;5045124;28;20484;-69
2022/03/26 12:38:10;;;;;;;19.77;17.10;;;30.70;41.10;;;;;;5040495;28;20466;-68
2022/03/26 12:40:38;;;;;;;22.00;18.80;;;30.70;39.90;;;;;;5047093;28;21246;-68
2022/03/26 12:43:06;;;;;;;24.93;17.90;;;30.30;41.00;;;;;;5046775;28;20509;-68
2022/03/26 12:45:32;;;;;;;20.70;16.50;;;30.20;41.80;;;;;;5046190;28;20476;-68
2022/03/26 12:48:00;;;;;;;21.43;16.50;;;30.30;42.90;;;;;;5046315;28;20458;-68
2022/03/26 12:50:27;;;;;;;25.10;18.67;;;30.70;41.60;;;;;;5046975;28;20453;-68
2022/03/26 12:52:54;;;;;;;21.40;17.83;;;30.80;40.60;;;;;;5046384;28;20457;-68
2022/03/26 12:55:22;;;;;;;21.47;15.90;;;30.60;40.80;;;;;;5046319;28;20480;-69